Warning: Invalid argument supplied for foreach() in /server/czul.ca/includes/prompts.inc.php on line 9

Warning: Invalid argument supplied for foreach() in /server/czul.ca/includes/prompts.inc.php on line 9

Warning: Invalid argument supplied for foreach() in /server/czul.ca/includes/prompts.inc.php on line 9
CZUL - FIR virtuelle de Montréal

EGSS

London Stansted Airport

{{ICAO_CODE}} EGSS
{{IATA_CODE}} STN
{{NAME}} London Stansted Airport
{{LOCATION}} London, England, GB
{{ELEVATION}} 348 {{FEET}} / 106.1 {{METERS}}
{{LATITUDE}} 51.88499832
{{LONGITUDE}} 0.23500000
{{METAR}} EGSS 232250Z AUTO VRB03KT 9999 NCD 14/14 Q1018
{{EXTRA_INFO}} {{DISPLAY_CHARTS_AND_CFS}}
{{DISPLAY_NOTAMS}}
{{RUNWAY}} {{LENGTH}} {{WIDTH}} {{SURFACE}} {{ELEVATION}}
04 10003 ft 151 ft ASP 324 ft
22 10003 ft 151 ft ASP 348 ft